createdAt,value
2023-12-16T00:03:39.927Z,4
2023-12-16T00:09:15.347Z,6
2023-12-16T00:14:50.978Z,4
2023-12-16T00:20:26.262Z,8
2023-12-16T00:26:02.229Z,17
2023-12-16T00:31:38.456Z,6
2023-12-16T00:37:14.583Z,6
2023-12-16T00:42:50.966Z,10
2023-12-16T00:48:27.008Z,8
2023-12-16T00:54:02.448Z,8
2023-12-16T00:59:37.690Z,12
2023-12-16T01:05:13.731Z,14
2023-12-16T01:10:50.102Z,10
2023-12-16T01:16:26.183Z,12
2023-12-16T01:22:02.551Z,21
2023-12-16T01:27:40.548Z,8
2023-12-16T01:33:17.851Z,8
2023-12-16T01:38:52.965Z,8
2023-12-16T01:44:28.113Z,12
2023-12-16T01:50:04.836Z,12
2023-12-16T01:55:40.037Z,10
2023-12-16T02:01:17.048Z,6
2023-12-16T02:06:53.769Z,2
2023-12-16T02:12:29.217Z,8
2023-12-16T02:18:05.314Z,18
2023-12-16T02:23:42.566Z,22
2023-12-16T02:29:19.895Z,24
2023-12-16T02:34:55.211Z,22
2023-12-16T02:40:31.132Z,30
2023-12-16T02:46:07.084Z,20
2023-12-16T02:51:43.540Z,8
2023-12-16T02:57:19.316Z,4
2023-12-16T03:02:55.132Z,10
2023-12-16T03:08:30.796Z,41
2023-12-16T03:14:06.342Z,6
2023-12-16T03:19:43.103Z,16
2023-12-16T03:25:19.155Z,4
2023-12-16T03:30:55.887Z,6
2023-12-16T03:36:31.137Z,16
2023-12-16T03:42:06.565Z,8
2023-12-16T03:47:43.498Z,22
2023-12-16T03:53:19.016Z,6
2023-12-16T03:58:54.718Z,4
2023-12-16T04:04:30.485Z,4
2023-12-16T04:10:06.598Z,10
2023-12-16T04:15:42.957Z,2
2023-12-16T04:21:18.411Z,10
2023-12-16T04:26:53.392Z,6
2023-12-16T04:32:31.518Z,4
2023-12-16T04:38:07.172Z,6
2023-12-16T04:43:42.932Z,2
2023-12-16T04:49:19.557Z,2
2023-12-16T04:54:55.855Z,2
2023-12-16T05:00:31.767Z,4
2023-12-16T05:06:08.132Z,6
2023-12-16T05:11:43.704Z,0
2023-12-16T05:17:19.643Z,6
2023-12-16T05:22:55.652Z,2
2023-12-16T05:28:31.438Z,2
2023-12-16T05:34:07.258Z,2
2023-12-16T05:39:43.289Z,6
2023-12-16T05:45:18.868Z,2
2023-12-16T05:50:54.510Z,4
2023-12-16T05:56:30.193Z,2
2023-12-16T06:02:05.421Z,4
2023-12-16T06:07:42.633Z,4
2023-12-16T06:13:18.248Z,0
2023-12-16T06:18:55.070Z,4
2023-12-16T06:24:30.820Z,4
2023-12-16T06:30:07.152Z,8
2023-12-16T06:35:42.548Z,4
2023-12-16T06:41:17.752Z,10
2023-12-16T06:46:53.801Z,2
2023-12-16T06:52:30.095Z,2
2023-12-16T06:58:06.281Z,4
2023-12-16T07:03:43.169Z,8
2023-12-16T07:09:18.658Z,4
2023-12-16T07:14:53.872Z,6
2023-12-16T07:20:30.299Z,6
2023-12-16T07:26:05.940Z,4
2023-12-16T07:31:42.260Z,6
2023-12-16T07:37:18.568Z,10
2023-12-16T07:42:55.229Z,0
2023-12-16T07:48:32.032Z,12
2023-12-16T07:54:08.379Z,2
2023-12-16T07:59:43.314Z,14
2023-12-16T08:05:19.289Z,10
2023-12-16T08:10:55.452Z,10
2023-12-16T08:16:31.829Z,8
2023-12-16T08:22:08.198Z,12
2023-12-16T08:27:45.242Z,69
2023-12-16T08:33:20.947Z,32
2023-12-16T08:38:56.520Z,22
2023-12-16T08:44:32.064Z,24
2023-12-16T08:50:10.062Z,10
2023-12-16T08:55:45.858Z,22
2023-12-16T09:01:22.316Z,4
2023-12-16T09:06:59.561Z,6
2023-12-16T09:12:36.451Z,12
2023-12-16T09:18:13.966Z,4
2023-12-16T09:23:49.955Z,10
2023-12-16T09:29:30.370Z,2
2023-12-16T09:35:06.443Z,0
2023-12-16T09:40:42.231Z,10
2023-12-16T09:46:18.022Z,18
2023-12-16T09:51:53.766Z,34
2023-12-16T09:57:30.269Z,16
2023-12-16T10:03:06.221Z,6
2023-12-16T10:08:42.024Z,8
2023-12-16T10:14:17.908Z,6
2023-12-16T10:19:54.479Z,8
2023-12-16T10:25:30.558Z,4
2023-12-16T10:31:07.371Z,2
2023-12-16T10:36:43.568Z,2
2023-12-16T10:42:19.142Z,0
2023-12-16T10:47:55.522Z,4
2023-12-16T10:53:31.653Z,6
2023-12-16T10:59:07.558Z,0
2023-12-16T11:04:44.929Z,0
2023-12-16T11:10:20.444Z,0
2023-12-16T11:15:56.434Z,2
2023-12-16T11:21:32.125Z,0
2023-12-16T11:27:07.399Z,0
2023-12-16T11:32:45.495Z,0
2023-12-16T11:38:23.774Z,0
2023-12-16T11:44:00.599Z,2
2023-12-16T11:49:37.836Z,0
2023-12-16T11:55:15.187Z,0
2023-12-16T12:00:52.177Z,2
2023-12-16T12:06:29.761Z,0
2023-12-16T12:12:07.043Z,2
2023-12-16T12:17:44.446Z,0
2023-12-16T12:23:21.849Z,0
2023-12-16T12:28:59.706Z,2
2023-12-16T12:34:41.707Z,2
2023-12-16T12:40:19.391Z,0
2023-12-16T12:45:55.778Z,0
2023-12-16T12:51:32.283Z,2
2023-12-16T12:57:08.761Z,2
2023-12-16T13:02:46.391Z,2
2023-12-16T13:08:21.826Z,2
2023-12-16T13:13:57.200Z,4
2023-12-16T13:19:33.093Z,0
2023-12-16T13:25:08.862Z,0
2023-12-16T13:30:45.917Z,0
2023-12-16T13:36:58.684Z,0
2023-12-16T13:42:34.701Z,0
2023-12-16T13:48:11.058Z,0
2023-12-16T13:53:47.246Z,2
2023-12-16T13:59:23.748Z,4
2023-12-16T14:05:00.287Z,2
2023-12-16T14:10:35.582Z,0
2023-12-16T14:16:11.558Z,0
2023-12-16T14:21:47.470Z,0
2023-12-16T14:27:22.393Z,0
2023-12-16T14:32:58.929Z,0
2023-12-16T14:38:34.893Z,10
2023-12-16T14:44:10.657Z,2
2023-12-16T14:49:46.786Z,0
2023-12-16T14:55:21.912Z,2
2023-12-16T15:00:58.782Z,2
2023-12-16T15:06:36.601Z,0
2023-12-16T15:12:13.972Z,4
2023-12-16T15:17:52.390Z,2
2023-12-16T15:23:28.353Z,0
2023-12-16T15:29:03.988Z,6
2023-12-16T15:34:40.362Z,0
2023-12-16T15:40:15.656Z,2
2023-12-16T15:45:51.183Z,2
2023-12-16T15:51:26.421Z,7
2023-12-16T15:57:02.760Z,4
2023-12-16T16:02:38.919Z,0
2023-12-16T16:08:14.245Z,4
2023-12-16T16:13:49.722Z,0
2023-12-16T16:19:26.372Z,4
2023-12-16T16:25:02.438Z,0
2023-12-16T16:30:38.102Z,0
2023-12-16T16:36:14.829Z,6
2023-12-16T16:41:50.307Z,8
2023-12-16T16:47:26.110Z,2
2023-12-16T16:53:03.561Z,4
2023-12-16T16:58:39.128Z,2
2023-12-16T17:04:14.639Z,6
2023-12-16T17:09:50.853Z,6
2023-12-16T17:15:26.323Z,6
2023-12-16T17:21:05.186Z,0
2023-12-16T17:26:42.620Z,4
2023-12-16T17:32:18.447Z,2
2023-12-16T17:37:54.122Z,0
2023-12-16T17:43:29.337Z,0
2023-12-16T17:49:06.103Z,8
2023-12-16T17:54:42.016Z,4
2023-12-16T18:00:18.663Z,8
2023-12-16T18:05:54.853Z,8
2023-12-16T18:11:30.681Z,0
2023-12-16T18:17:06.317Z,4
2023-12-16T18:22:41.834Z,8
2023-12-16T18:28:16.921Z,12
2023-12-16T18:33:54.093Z,16
2023-12-16T18:39:29.738Z,12
2023-12-16T18:45:05.631Z,14
2023-12-16T18:50:41.998Z,24
2023-12-16T18:56:17.753Z,30
2023-12-16T19:01:53.204Z,32
2023-12-16T19:07:28.718Z,22
2023-12-16T19:13:04.150Z,26
2023-12-16T19:18:40.372Z,20
2023-12-16T19:24:16.993Z,34
2023-12-16T19:29:53.038Z,22
2023-12-16T19:35:28.480Z,18
2023-12-16T19:41:04.513Z,36
2023-12-16T19:46:39.484Z,28
2023-12-16T19:52:14.957Z,18
2023-12-16T19:57:50.589Z,10
2023-12-16T20:03:27.656Z,20
2023-12-16T20:09:04.128Z,42
2023-12-16T20:14:40.458Z,14
2023-12-16T20:20:15.932Z,14
2023-12-16T20:25:51.270Z,25
2023-12-16T20:31:26.908Z,6
2023-12-16T20:37:02.449Z,14
2023-12-16T20:42:37.969Z,18
2023-12-16T20:48:15.155Z,14
2023-12-16T20:53:52.127Z,10
2023-12-16T20:59:27.606Z,8
2023-12-16T21:05:03.357Z,10
2023-12-16T21:10:39.154Z,34
2023-12-16T21:16:14.579Z,40
2023-12-16T21:21:50.307Z,26
2023-12-16T21:27:26.463Z,42
2023-12-16T21:33:03.892Z,14
2023-12-16T21:38:40.833Z,18
2023-12-16T21:44:17.168Z,30
2023-12-16T21:49:53.292Z,34
2023-12-16T21:55:29.345Z,22
2023-12-16T22:01:05.101Z,14
2023-12-16T22:06:40.253Z,26
2023-12-16T22:12:16.752Z,24
2023-12-16T22:17:53.395Z,34
2023-12-16T22:23:28.862Z,22
2023-12-16T22:29:04.951Z,20
2023-12-16T22:34:40.751Z,20
2023-12-16T22:40:16.010Z,20
2023-12-16T22:45:51.364Z,36
2023-12-16T22:51:28.396Z,36
2023-12-16T22:57:04.716Z,42
2023-12-16T23:02:41.213Z,36
2023-12-16T23:08:17.680Z,26
2023-12-16T23:13:53.904Z,12
2023-12-16T23:19:30.429Z,47
2023-12-16T23:25:06.660Z,16
2023-12-16T23:30:43.730Z,22
2023-12-16T23:36:20.591Z,26
2023-12-16T23:41:57.275Z,51
2023-12-16T23:47:34.139Z,32
2023-12-16T23:53:10.061Z,34
2023-12-16T23:58:45.721Z,16
